createdAt,value
2018-12-24T00:02:31.260Z,80.90
2018-12-24T00:05:18.081Z,80.80
2018-12-24T00:10:35.469Z,80.30
2018-12-24T00:13:25.621Z,80.30
2018-12-24T00:16:08.009Z,80.10
2018-12-24T00:21:59.978Z,80.10
2018-12-24T00:24:32.306Z,79.30
2018-12-24T00:27:22.243Z,79.10
2018-12-24T00:32:54.200Z,79.20
2018-12-24T00:35:37.925Z,79.40
2018-12-24T00:38:22.807Z,79.70
2018-12-24T00:41:07.953Z,79.60
2018-12-24T00:43:52.322Z,79.30
2018-12-24T00:49:16.769Z,80.30
2018-12-24T00:52:01.073Z,79.60
2018-12-24T00:54:43.418Z,78.90
2018-12-24T00:57:33.224Z,79.10
2018-12-24T01:00:14.640Z,79.20
2018-12-24T01:02:59.005Z,79.70
2018-12-24T01:05:41.896Z,79.40
2018-12-24T01:15:06.168Z,79.60
2018-12-24T01:18:08.425Z,80.50
2018-12-24T01:23:41.159Z,80.20
2018-12-24T01:26:27.828Z,79.40
2018-12-24T01:29:30.763Z,79.60
2018-12-24T01:35:02.681Z,79.90
2018-12-24T01:37:46.760Z,80.00
2018-12-24T01:40:30.142Z,80.40
2018-12-24T01:46:10.323Z,81.10
2018-12-24T01:48:53.787Z,81.10
2018-12-24T01:54:30.207Z,82.10
2018-12-24T01:57:14.594Z,81.50
2018-12-24T01:59:56.681Z,81.70
2018-12-24T02:02:39.460Z,81.70
2018-12-24T02:05:24.473Z,81.80
2018-12-24T02:08:19.213Z,81.90
2018-12-24T02:13:56.911Z,82.10
2018-12-24T02:16:39.907Z,81.90
2018-12-24T02:19:25.572Z,82.10
2018-12-24T02:22:12.971Z,82.30
2018-12-24T02:31:03.175Z,82.60
2018-12-24T02:33:47.783Z,82.80
2018-12-24T02:36:30.447Z,82.90
2018-12-24T02:39:15.495Z,82.10
2018-12-24T02:41:57.358Z,82.00
2018-12-24T02:44:42.267Z,81.90
2018-12-24T02:50:23.142Z,82.40
2018-12-24T02:53:08.043Z,82.20
2018-12-24T02:55:50.128Z,82.20
2018-12-24T02:58:33.179Z,82.50
2018-12-24T03:01:15.232Z,82.40
2018-12-24T03:03:59.096Z,82.30
2018-12-24T03:09:36.530Z,82.20
2018-12-24T03:15:15.520Z,82.20
2018-12-24T03:17:58.337Z,81.90
2018-12-24T03:20:40.143Z,82.00
2018-12-24T03:23:23.442Z,81.50
2018-12-24T03:26:06.600Z,81.20
2018-12-24T03:34:45.463Z,80.90
2018-12-24T03:37:29.575Z,80.90
2018-12-24T03:40:11.542Z,80.80
2018-12-24T03:42:54.163Z,80.70
2018-12-24T03:48:26.045Z,80.90
2018-12-24T03:51:12.089Z,80.90
2018-12-24T03:53:56.605Z,80.30
2018-12-24T03:56:39.162Z,79.90
2018-12-24T04:02:20.879Z,79.40
2018-12-24T04:05:04.175Z,79.50
2018-12-24T04:07:48.178Z,79.50
2018-12-24T04:10:31.571Z,80.30
2018-12-24T04:13:22.152Z,80.40
2018-12-24T04:15:59.237Z,80.40
2018-12-24T04:18:41.870Z,80.90
2018-12-24T04:21:25.900Z,81.00
2018-12-24T04:24:10.771Z,81.00
2018-12-24T04:26:54.084Z,81.40
2018-12-24T04:29:36.023Z,81.50
2018-12-24T04:32:19.829Z,81.70
2018-12-24T04:35:01.747Z,81.70
2018-12-24T04:37:44.788Z,81.70
2018-12-24T04:40:27.504Z,81.70
2018-12-24T04:43:13.342Z,81.60
2018-12-24T04:45:56.970Z,81.90
2018-12-24T04:48:46.803Z,82.10
2018-12-24T04:51:31.227Z,81.80
2018-12-24T04:54:17.542Z,81.90
2018-12-24T05:00:28.055Z,81.20
2018-12-24T05:05:34.712Z,81.40
2018-12-24T05:08:19.298Z,81.50
2018-12-24T05:11:02.604Z,81.20
2018-12-24T05:13:46.282Z,81.60
2018-12-24T05:19:41.044Z,72.80
2018-12-24T05:25:38.735Z,73.20
2018-12-24T05:28:40.868Z,73.60
2018-12-24T05:37:10.659Z,74.20
2018-12-24T05:42:37.385Z,75.70
2018-12-24T05:45:22.423Z,76.40
2018-12-24T05:48:04.119Z,76.70
2018-12-24T05:50:54.029Z,76.90
2018-12-24T05:53:35.713Z,77.30
2018-12-24T05:56:23.071Z,77.30
2018-12-24T06:01:57.967Z,76.90
2018-12-24T06:04:40.387Z,75.90
2018-12-24T06:07:11.889Z,76.50
2018-12-24T06:10:02.377Z,76.80
2018-12-24T06:12:34.965Z,77.20
2018-12-24T06:15:17.710Z,77.40
2018-12-24T06:18:01.097Z,78.80
2018-12-24T06:20:43.273Z,77.80
2018-12-24T06:26:21.083Z,77.50
2018-12-24T06:28:53.721Z,77.70
2018-12-24T06:31:44.758Z,77.60
2018-12-24T06:37:17.317Z,77.00
2018-12-24T06:42:44.047Z,76.60
2018-12-24T06:45:28.443Z,76.80
2018-12-24T06:48:10.336Z,77.20
2018-12-24T06:50:54.835Z,77.40
2018-12-24T06:53:26.400Z,76.80
2018-12-24T06:56:17.295Z,77.30
2018-12-24T06:58:50.202Z,77.60
2018-12-24T07:01:49.982Z,77.50
2018-12-24T07:04:25.449Z,76.40
2018-12-24T07:06:56.764Z,75.80
2018-12-24T07:09:30.406Z,75.10
2018-12-24T07:12:20.336Z,75.60
2018-12-24T07:15:07.077Z,75.40
2018-12-24T07:18:16.271Z,75.10
2018-12-24T07:21:06.736Z,75.10
2018-12-24T07:26:39.576Z,75.40
2018-12-24T07:29:23.462Z,74.90
2018-12-24T07:32:06.508Z,74.80
2018-12-24T07:34:52.002Z,74.50
2018-12-24T07:37:35.337Z,74.20
2018-12-24T07:40:19.226Z,73.90
2018-12-24T07:42:50.526Z,74.60
2018-12-24T07:45:40.079Z,74.90
2018-12-24T07:48:23.229Z,74.70
2018-12-24T07:50:55.326Z,75.50
2018-12-24T07:53:44.994Z,75.70
2018-12-24T07:56:16.602Z,75.90
2018-12-24T07:58:47.370Z,77.40
2018-12-24T08:01:19.265Z,78.10
2018-12-24T08:03:50.257Z,78.60
2018-12-24T08:06:21.927Z,78.90
2018-12-24T08:08:54.094Z,79.20
2018-12-24T08:11:25.992Z,79.40
2018-12-24T08:13:57.528Z,79.40
2018-12-24T08:16:29.453Z,79.40
2018-12-24T08:19:01.444Z,79.10
2018-12-24T08:21:32.372Z,79.70
2018-12-24T08:24:22.861Z,79.80
2018-12-24T08:26:53.793Z,79.60
2018-12-24T08:29:44.399Z,79.60
2018-12-24T08:35:00.430Z,79.40
2018-12-24T08:37:50.545Z,79.50
2018-12-24T08:40:22.421Z,79.20
2018-12-24T08:42:56.540Z,79.30
2018-12-24T08:45:28.441Z,79.60
2018-12-24T08:48:18.629Z,79.70
2018-12-24T08:51:01.268Z,79.80
2018-12-24T08:53:36.106Z,79.40
2018-12-24T08:56:26.257Z,79.50
2018-12-24T08:58:58.817Z,79.10
2018-12-24T09:02:08.439Z,79.00
2018-12-24T09:04:40.760Z,78.80
2018-12-24T09:07:12.876Z,79.40
2018-12-24T09:09:45.319Z,79.80
2018-12-24T09:12:37.635Z,80.00
2018-12-24T09:17:58.798Z,80.30
2018-12-24T09:20:30.012Z,80.20
2018-12-24T09:23:01.991Z,80.30
2018-12-24T09:25:33.927Z,80.40
2018-12-24T09:28:14.688Z,80.70
2018-12-24T09:30:51.444Z,80.70
2018-12-24T09:33:22.796Z,80.70
2018-12-24T09:35:56.479Z,80.80
2018-12-24T09:38:47.046Z,80.80
2018-12-24T09:41:18.774Z,80.50
2018-12-24T09:43:50.678Z,80.80
2018-12-24T09:46:23.880Z,80.50
2018-12-24T09:49:14.659Z,80.50
2018-12-24T09:51:47.832Z,80.70
2018-12-24T09:54:21.144Z,80.30
2018-12-24T09:56:53.517Z,80.20
2018-12-24T09:59:25.241Z,79.70
2018-12-24T10:01:58.886Z,79.20
2018-12-24T10:04:40.135Z,77.90
2018-12-24T10:10:18.333Z,77.80
2018-12-24T10:12:50.072Z,76.50
2018-12-24T10:15:21.468Z,75.80
2018-12-24T10:17:52.106Z,76.60
2018-12-24T10:20:43.665Z,75.50
2018-12-24T10:23:16.323Z,73.60
2018-12-24T10:25:47.575Z,74.10
2018-12-24T10:28:38.540Z,74.40
2018-12-24T10:31:09.480Z,74.80
2018-12-24T10:33:41.530Z,75.70
2018-12-24T10:36:14.630Z,75.60
2018-12-24T10:38:48.016Z,73.50
2018-12-24T10:41:22.617Z,73.40
2018-12-24T10:44:14.516Z,74.00
2018-12-24T10:46:45.511Z,74.30
2018-12-24T10:49:16.948Z,75.20
2018-12-24T10:51:48.277Z,74.90
2018-12-24T10:54:19.586Z,75.60
2018-12-24T10:56:50.439Z,76.20
2018-12-24T10:59:24.660Z,75.70
2018-12-24T11:01:57.202Z,75.90
2018-12-24T11:04:48.126Z,75.40
2018-12-24T11:07:20.751Z,76.40
2018-12-24T11:09:52.596Z,77.00
2018-12-24T11:12:29.941Z,76.80
2018-12-24T11:15:02.441Z,76.90
2018-12-24T11:17:52.420Z,76.50
2018-12-24T11:20:25.786Z,77.40
2018-12-24T11:23:10.315Z,77.60
2018-12-24T11:25:44.082Z,77.50
2018-12-24T11:28:15.771Z,76.70
2018-12-24T11:31:00.431Z,76.70
2018-12-24T11:33:50.227Z,75.00
2018-12-24T11:36:22.516Z,74.90
2018-12-24T11:38:56.322Z,73.50
2018-12-24T11:41:31.893Z,73.00
2018-12-24T11:44:04.360Z,75.20
2018-12-24T11:46:48.272Z,75.10
2018-12-24T11:49:19.851Z,75.60
2018-12-24T11:51:50.150Z,74.70
2018-12-24T11:54:20.994Z,76.30
2018-12-24T11:56:53.102Z,75.40
2018-12-24T12:02:43.255Z,75.80
2018-12-24T12:05:32.703Z,75.80
2018-12-24T12:08:04.161Z,76.10
2018-12-24T12:13:26.285Z,76.80
2018-12-24T12:15:59.414Z,76.90
2018-12-24T12:21:37.638Z,75.20
2018-12-24T12:24:11.640Z,75.30
2018-12-24T12:26:43.767Z,75.70
2018-12-24T12:29:16.328Z,75.60
2018-12-24T12:31:48.824Z,75.70
2018-12-24T12:34:41.579Z,75.10
2018-12-24T12:37:13.364Z,75.00
2018-12-24T12:39:44.530Z,74.30
2018-12-24T12:42:17.690Z,74.50
2018-12-24T12:44:49.519Z,74.40
2018-12-24T12:47:22.114Z,74.30
2018-12-24T12:49:54.286Z,74.10
2018-12-24T12:52:46.824Z,74.20
2018-12-24T12:55:36.607Z,74.50
2018-12-24T12:58:08.512Z,74.70
2018-12-24T13:00:59.417Z,75.60
2018-12-24T13:03:42.204Z,75.60
2018-12-24T13:06:14.930Z,76.00
2018-12-24T13:08:47.159Z,75.60
2018-12-24T13:11:22.715Z,76.00
2018-12-24T13:13:54.821Z,75.90
2018-12-24T13:16:46.833Z,75.00
2018-12-24T13:22:24.014Z,74.20
2018-12-24T13:24:55.755Z,74.50
2018-12-24T13:27:33.441Z,74.50
2018-12-24T13:30:05.334Z,73.70
2018-12-24T13:32:36.493Z,73.30
2018-12-24T13:35:08.579Z,72.50
2018-12-24T13:37:42.313Z,71.90
2018-12-24T13:40:16.972Z,72.00
2018-12-24T13:45:48.376Z,73.30
2018-12-24T13:48:20.309Z,73.80
2018-12-24T13:51:03.295Z,72.40
2018-12-24T13:53:41.800Z,72.60
2018-12-24T13:56:27.359Z,72.90
2018-12-24T13:58:58.690Z,71.70
2018-12-24T14:01:30.598Z,71.10
2018-12-24T14:04:01.842Z,71.30
2018-12-24T14:06:35.583Z,71.50
2018-12-24T14:09:09.391Z,71.30
2018-12-24T14:14:47.709Z,71.50
2018-12-24T14:17:21.199Z,71.00
2018-12-24T14:19:53.797Z,70.40
2018-12-24T14:22:25.559Z,70.30
2018-12-24T14:25:17.913Z,69.70
2018-12-24T14:27:49.206Z,68.90
2018-12-24T14:30:22.194Z,68.50
2018-12-24T14:33:12.990Z,68.60
2018-12-24T14:35:45.114Z,69.00
2018-12-24T14:38:16.809Z,69.40
2018-12-24T14:41:07.576Z,69.40
2018-12-24T14:43:58.379Z,69.30
2018-12-24T14:46:33.452Z,69.10
2018-12-24T14:49:05.124Z,70.40
2018-12-24T14:51:57.058Z,70.90
2018-12-24T14:54:29.866Z,70.50
2018-12-24T14:57:21.365Z,70.90
2018-12-24T15:02:49.655Z,71.40
2018-12-24T15:05:34.944Z,72.00
2018-12-24T15:11:15.214Z,72.40
2018-12-24T15:14:05.337Z,72.30
2018-12-24T15:16:38.399Z,72.60
2018-12-24T15:19:30.334Z,72.80
2018-12-24T15:22:02.531Z,73.10
2018-12-24T15:24:54.549Z,72.60
2018-12-24T15:27:26.220Z,73.20
2018-12-24T15:30:19.695Z,73.40
2018-12-24T15:33:11.636Z,73.90
2018-12-24T15:35:53.958Z,74.50
2018-12-24T15:41:36.464Z,74.60
2018-12-24T15:44:07.947Z,74.60
2018-12-24T15:46:42.845Z,74.80
2018-12-24T15:49:12.914Z,74.40
2018-12-24T15:54:41.881Z,74.30
2018-12-24T15:57:26.531Z,74.20
2018-12-24T16:00:12.116Z,74.10
2018-12-24T16:02:59.737Z,73.10
2018-12-24T16:05:32.303Z,73.60
2018-12-24T16:11:24.882Z,73.80
2018-12-24T16:14:09.513Z,74.10
2018-12-24T16:16:53.040Z,74.10
2018-12-24T16:19:37.567Z,73.70
2018-12-24T16:22:23.232Z,73.70
2018-12-24T16:27:41.378Z,73.60
2018-12-24T16:30:32.004Z,73.60
2018-12-24T16:33:04.862Z,73.50
2018-12-24T16:35:37.405Z,74.00
2018-12-24T16:42:24.885Z,73.60
2018-12-24T16:47:52.309Z,73.20
2018-12-24T16:50:25.193Z,72.50
2018-12-24T16:53:15.331Z,73.30
2018-12-24T16:55:47.632Z,73.60
2018-12-24T16:58:31.772Z,74.00
2018-12-24T17:01:03.772Z,74.40
2018-12-24T17:06:42.480Z,75.00
2018-12-24T17:09:16.210Z,74.70
2018-12-24T17:18:07.424Z,75.30
2018-12-24T17:20:50.057Z,75.30
2018-12-24T17:23:40.146Z,75.40
2018-12-24T17:26:23.986Z,75.80
2018-12-24T17:29:07.888Z,75.20
2018-12-24T17:31:53.625Z,75.20
2018-12-24T17:40:51.927Z,74.60
2018-12-24T17:43:42.376Z,74.60
2018-12-24T17:46:15.089Z,74.80
2018-12-24T17:49:06.502Z,75.10
2018-12-24T17:54:36.174Z,75.30
2018-12-24T18:06:10.347Z,74.90
2018-12-24T18:11:38.013Z,75.20
2018-12-24T18:14:22.987Z,75.80
2018-12-24T18:16:57.918Z,75.90
2018-12-24T18:19:49.452Z,76.80
2018-12-24T18:25:09.302Z,76.40
2018-12-24T18:27:51.900Z,76.70
2018-12-24T18:33:49.715Z,76.80
2018-12-24T18:39:38.960Z,77.10
2018-12-24T18:42:25.941Z,77.30
2018-12-24T18:45:08.908Z,77.30
2018-12-24T18:47:55.703Z,77.50
2018-12-24T18:56:48.598Z,76.20
2018-12-24T18:59:32.805Z,75.90
2018-12-24T19:02:16.614Z,75.70
2018-12-24T19:08:53.151Z,76.00
2018-12-24T19:14:28.891Z,75.10
2018-12-24T19:20:20.081Z,75.30
2018-12-24T19:25:49.847Z,75.20
2018-12-24T19:28:33.410Z,75.00
2018-12-24T19:31:16.731Z,74.90
2018-12-24T19:34:00.246Z,75.10
2018-12-24T19:36:45.421Z,75.00
2018-12-24T19:39:29.203Z,74.80
2018-12-24T19:42:16.297Z,74.90
2018-12-24T19:45:03.182Z,74.90
2018-12-24T19:47:49.854Z,74.90
2018-12-24T19:50:30.627Z,74.50
2018-12-24T19:53:16.368Z,74.80
2018-12-24T20:04:53.878Z,75.80
2018-12-24T20:07:39.703Z,76.10
2018-12-24T20:10:21.264Z,76.20
2018-12-24T20:13:05.938Z,76.20
2018-12-24T20:15:49.296Z,76.30
2018-12-24T20:18:33.776Z,76.40
2018-12-24T20:21:17.066Z,76.50
2018-12-24T20:24:03.155Z,76.90
2018-12-24T20:26:47.478Z,76.30
2018-12-24T20:29:32.598Z,76.00
2018-12-24T20:32:16.438Z,76.00
2018-12-24T20:35:00.274Z,76.00
2018-12-24T20:41:19.203Z,75.40
2018-12-24T20:44:01.975Z,75.40
2018-12-24T20:46:46.059Z,75.30
2018-12-24T20:49:29.630Z,75.50
2018-12-24T20:52:01.526Z,75.70
2018-12-24T20:54:34.434Z,75.90
2018-12-24T20:57:24.125Z,76.10
2018-12-24T21:00:15.909Z,76.20
2018-12-24T21:02:51.013Z,75.90
2018-12-24T21:08:45.437Z,75.80
2018-12-24T21:18:20.198Z,76.10
2018-12-24T21:24:06.521Z,76.20
2018-12-24T21:35:22.481Z,75.90
2018-12-24T21:38:13.081Z,75.90
2018-12-24T21:40:55.353Z,75.90
2018-12-24T21:43:40.379Z,75.60
2018-12-24T21:49:17.795Z,75.70
2018-12-24T22:00:58.064Z,75.40
2018-12-24T22:03:42.665Z,75.60
2018-12-24T22:06:25.078Z,75.70
2018-12-24T22:09:09.560Z,75.60
2018-12-24T22:12:00.605Z,75.60
2018-12-24T22:17:28.648Z,75.50
2018-12-24T22:20:13.825Z,75.50
2018-12-24T22:22:56.557Z,75.40
2018-12-24T22:25:27.750Z,75.50
2018-12-24T22:28:17.888Z,75.50
2018-12-24T22:31:00.395Z,75.70
2018-12-24T22:33:50.552Z,75.80
2018-12-24T22:39:11.233Z,76.00
2018-12-24T22:42:01.999Z,75.80
2018-12-24T22:44:45.565Z,75.60
2018-12-24T22:47:30.206Z,75.20
2018-12-24T22:50:14.728Z,75.00
2018-12-24T22:53:04.015Z,74.70
2018-12-24T22:55:47.713Z,74.70
2018-12-24T22:58:31.266Z,74.70
2018-12-24T23:01:14.594Z,74.40
2018-12-24T23:03:47.474Z,74.20
2018-12-24T23:06:37.568Z,73.50
2018-12-24T23:12:04.680Z,73.10
2018-12-24T23:14:50.325Z,73.40
2018-12-24T23:20:33.349Z,73.60
2018-12-24T23:23:04.593Z,73.90
2018-12-24T23:25:54.536Z,74.20
2018-12-24T23:31:21.722Z,74.50
2018-12-24T23:34:06.936Z,74.60
2018-12-24T23:36:50.691Z,74.60
2018-12-24T23:42:40.896Z,74.80
2018-12-24T23:45:13.976Z,74.70
2018-12-24T23:48:04.988Z,74.90
2018-12-24T23:53:37.839Z,74.60
2018-12-24T23:56:22.692Z,74.10
2018-12-24T23:59:06.705Z,73.30
